Allendale, Missouri
Current Conditions -  °F | °C
As of 8:53 AM on Friday 28 Nov 2014 (Local Time) from KLWD Reporting Station
Clear Clear  
Wind Chill: 22°   Ceiling: Unl
Heat Index: 30°   Visibility: 10mi
Dew Point: 24°   Wind: 9mph
Humidity: 79%   Direction: 180°S
Pressure: 29.95"   Gusts: NA
Location:  40.49°N, 94.29°W
Report Text: KLWD 281453Z AUTO 18008KT 10SM CLR M01/M04 A2995 RMK AO2 SLP158 T10111044 58015
Loading
Personal Weather Stations






























Interactive Weather Map New forecast layout! Learn more

10-Day Weather Forecast

Advertisements
Track Severe Weather on mobile